Time;durP1;ratioP1;P1;durP2;ratioP2;P2;SDS_P1;SDS_P2;PMS_P1;PMS_P2;Temp;Humidity;BMP_temperature;BMP_pressure;BME280_temperature;BME280_humidity;BME280_pressure;Samples;Min_cycle;Max_cycle;Signal;HPM_P1;HPM_P2
2022/05/04 00:01:23;;;;;;;8.47;5.70;;;14.20;99.90;;;;;;5033867;28;20206;-89
2022/05/04 00:03:49;;;;;;;9.03;6.47;;;14.20;99.90;;;;;;5016266;28;20179;-89
2022/05/04 00:06:14;;;;;;;8.80;6.93;;;14.20;99.90;;;;;;5036387;28;20190;-96
2022/05/04 00:08:40;;;;;;;8.00;6.37;;;14.20;99.90;;;;;;5017179;28;20194;-96
2022/05/04 00:11:06;;;;;;;7.20;6.20;;;14.20;99.90;;;;;;5062013;28;20252;-89
2022/05/04 00:13:33;;;;;;;8.17;6.30;;;14.20;99.90;;;;;;5097874;28;20196;-96
2022/05/04 00:16:03;;;;;;;8.23;6.57;;;14.20;99.90;;;;;;5101794;28;20503;-95
2022/05/04 00:18:29;;;;;;;7.00;5.87;;;14.20;99.90;;;;;;5121488;28;20480;-96
2022/05/04 00:20:56;;;;;;;6.67;6.00;;;14.10;99.90;;;;;;5123331;28;20416;-96
2022/05/04 00:23:22;;;;;;;9.43;7.07;;;14.10;99.90;;;;;;5099821;28;20523;-88
2022/05/04 00:25:48;;;;;;;9.10;6.20;;;14.10;99.90;;;;;;5115106;28;20431;-95
2022/05/04 00:28:14;;;;;;;10.67;6.33;;;14.00;99.90;;;;;;5118058;28;20436;-96
2022/05/04 00:30:39;;;;;;;6.70;5.90;;;14.00;99.90;;;;;;5099194;28;20408;-89
2022/05/04 00:33:05;;;;;;;9.80;6.40;;;14.00;99.90;;;;;;5099468;28;20432;-96
2022/05/04 00:35:31;;;;;;;14.83;7.60;;;14.00;99.90;;;;;;5099479;28;20226;-89
2022/05/04 00:37:57;;;;;;;10.50;7.40;;;13.90;99.90;;;;;;5099082;28;21082;-96
2022/05/04 00:40:23;;;;;;;7.90;6.23;;;13.80;99.90;;;;;;5098864;28;20278;-96
2022/05/04 00:42:48;;;;;;;8.30;6.40;;;13.80;99.90;;;;;;5099199;28;20257;-89
2022/05/04 00:45:14;;;;;;;7.00;5.73;;;13.80;99.90;;;;;;5100128;28;20221;-89
2022/05/04 00:47:40;;;;;;;6.30;5.40;;;13.80;99.90;;;;;;5117005;28;20188;-96
2022/05/04 00:50:07;;;;;;;6.37;5.50;;;13.80;99.90;;;;;;5104898;28;20171;-88
2022/05/04 00:52:35;;;;;;;8.33;5.63;;;13.70;99.90;;;;;;5125585;28;20203;-89
2022/05/04 00:55:02;;;;;;;7.13;5.90;;;13.80;99.90;;;;;;5097229;28;20461;-88
2022/05/04 01:00:13;;;;;;;6.90;5.53;;;13.60;99.90;;;;;;5115326;28;20436;-96
2022/05/04 01:02:40;;;;;;;7.50;5.33;;;13.60;99.90;;;;;;5116093;28;20419;-90
2022/05/04 01:05:09;;;;;;;6.20;5.20;;;13.60;99.90;;;;;;5116060;28;20441;-89
2022/05/04 01:07:39;;;;;;;8.20;4.80;;;13.60;99.90;;;;;;5097118;28;20439;-96
2022/05/04 01:10:06;;;;;;;9.75;5.20;;;13.50;99.90;;;;;;5087034;28;20430;-89
2022/05/04 01:12:32;;;;;;;6.17;5.20;;;13.50;99.90;;;;;;5014819;28;20191;-89
2022/05/04 01:14:58;;;;;;;7.77;5.90;;;13.50;99.90;;;;;;5015195;28;20510;-89
2022/05/04 01:17:24;;;;;;;6.17;5.50;;;13.50;99.90;;;;;;5017380;28;20202;-96
2022/05/04 01:19:50;;;;;;;7.93;5.80;;;13.50;99.90;;;;;;5021920;28;20420;-95
2022/05/04 01:22:16;;;;;;;8.83;5.73;;;13.50;99.90;;;;;;5038766;28;20539;-96
2022/05/04 01:24:42;;;;;;;6.67;5.73;;;13.50;99.90;;;;;;5018862;28;20674;-94
2022/05/04 01:27:13;;;;;;;6.97;5.70;;;13.40;99.90;;;;;;5018993;28;20210;-90
2022/05/04 01:29:39;;;;;;;6.63;5.53;;;13.40;99.90;;;;;;5019524;28;20175;-96
2022/05/04 01:32:06;;;;;;;6.73;5.80;;;13.30;99.90;;;;;;5037573;28;20913;-89
2022/05/04 01:34:31;;;;;;;6.60;5.13;;;13.30;99.90;;;;;;5037552;28;20772;-96
2022/05/04 01:36:57;;;;;;;8.20;6.37;;;13.30;99.90;;;;;;5018996;28;20493;-96
2022/05/04 01:39:23;;;;;;;6.33;5.30;;;13.20;99.90;;;;;;5036507;28;20182;-89
2022/05/04 01:42:03;;;;;;;10.10;6.10;;;13.20;99.90;;;;;;5037386;28;20202;-96
2022/05/04 01:44:30;;;;;;;9.60;6.30;;;13.20;99.90;;;;;;5037347;28;20158;-96
2022/05/04 01:46:56;;;;;;;6.72;5.70;;;13.10;99.90;;;;;;5038382;28;20623;-89
2022/05/04 01:49:21;;;;;;;8.83;5.37;;;13.10;99.90;;;;;;5021426;28;20198;-95
2022/05/04 01:51:47;;;;;;;7.27;5.90;;;13.10;99.90;;;;;;5019754;28;20209;-96
2022/05/04 01:54:14;;;;;;;7.40;6.37;;;13.00;99.90;;;;;;5038678;28;20658;-95
2022/05/04 01:56:39;;;;;;;8.15;6.15;;;13.00;99.90;;;;;;5038112;28;20218;-96
2022/05/04 01:59:05;;;;;;;9.37;6.17;;;13.00;99.90;;;;;;5020204;28;20185;-96
2022/05/04 02:01:34;;;;;;;9.20;6.43;;;13.00;99.90;;;;;;5020363;28;20232;-96
2022/05/04 02:04:03;;;;;;;7.80;5.95;;;12.90;99.90;;;;;;5037448;28;20643;-96
2022/05/04 02:06:29;;;;;;;8.05;6.32;;;12.90;99.90;;;;;;5021558;28;20277;-90
2022/05/04 02:08:57;;;;;;;9.45;6.93;;;12.90;99.90;;;;;;5021424;28;20179;-96
2022/05/04 02:11:24;;;;;;;7.80;6.85;;;12.90;99.90;;;;;;5027956;28;20324;-90
2022/05/04 02:13:50;;;;;;;8.43;6.20;;;12.90;99.90;;;;;;5035387;28;20182;-96
2022/05/04 02:16:15;;;;;;;9.03;6.73;;;12.90;99.90;;;;;;5050865;28;20479;-90
2022/05/04 02:18:42;;;;;;;8.93;6.53;;;12.90;99.90;;;;;;5035059;28;20419;-95
2022/05/04 02:21:09;;;;;;;9.20;5.50;;;12.80;99.90;;;;;;5035170;28;20813;-96
2022/05/04 02:23:35;;;;;;;7.90;6.23;;;12.80;99.90;;;;;;5051202;28;20434;-88
2022/05/04 02:26:01;;;;;;;10.13;7.00;;;12.70;99.90;;;;;;5038040;28;20968;-95
2022/05/04 02:28:29;;;;;;;7.80;5.87;;;12.70;99.90;;;;;;5036495;28;20197;-96
2022/05/04 02:30:55;;;;;;;7.47;5.40;;;12.60;99.90;;;;;;5037562;28;20427;-91
2022/05/04 02:33:21;;;;;;;7.20;5.90;;;12.50;99.90;;;;;;5056434;28;20223;-90
2022/05/04 02:38:31;;;;;;;7.68;5.68;;;12.50;99.90;;;;;;5057684;28;20425;-96
2022/05/04 02:40:57;;;;;;;8.20;6.13;;;12.50;99.90;;;;;;5055650;28;20245;-96
2022/05/04 02:43:23;;;;;;;9.13;5.95;;;12.40;99.90;;;;;;5040836;28;20249;-96
2022/05/04 02:45:49;;;;;;;7.60;5.78;;;12.40;99.90;;;;;;5039780;28;20185;-90
2022/05/04 02:48:15;;;;;;;11.83;5.80;;;12.30;99.90;;;;;;5039608;28;20201;-96
2022/05/04 02:50:40;;;;;;;9.57;6.30;;;12.30;99.90;;;;;;5057583;28;20727;-90
2022/05/04 02:53:06;;;;;;;9.80;7.23;;;12.30;99.90;;;;;;5039636;28;20194;-90
2022/05/04 02:55:32;;;;;;;7.30;5.40;;;12.30;99.90;;;;;;5040154;28;20217;-96
2022/05/04 02:57:58;;;;;;;8.63;5.63;;;12.30;99.90;;;;;;5040738;28;20229;-96
2022/05/04 03:00:25;;;;;;;8.77;6.80;;;12.30;99.90;;;;;;5039539;28;20427;-90
2022/05/04 03:02:51;;;;;;;9.10;7.07;;;12.30;99.90;;;;;;5061972;28;20431;-90
2022/05/04 03:05:17;;;;;;;7.95;6.38;;;12.30;99.90;;;;;;5065128;28;20177;-96
2022/05/04 03:07:44;;;;;;;7.20;5.32;;;12.30;99.90;;;;;;5038953;28;20570;-96
2022/05/04 03:10:11;;;;;;;7.70;5.95;;;12.30;99.90;;;;;;5054722;28;20234;-90
2022/05/04 03:12:37;;;;;;;7.50;6.35;;;12.30;99.90;;;;;;5036931;28;20259;-90
2022/05/04 03:15:04;;;;;;;5.95;5.07;;;12.30;99.90;;;;;;5037032;28;20178;-90
2022/05/04 03:17:29;;;;;;;7.50;5.65;;;12.20;99.90;;;;;;5053351;28;20572;-90
2022/05/04 03:19:55;;;;;;;8.50;6.30;;;12.30;99.90;;;;;;5054160;28;20173;-96
2022/05/04 03:22:21;;;;;;;7.47;5.90;;;12.30;99.90;;;;;;5036753;28;20205;-90
2022/05/04 03:24:47;;;;;;;9.77;7.07;;;12.40;99.90;;;;;;5038871;28;20434;-95
2022/05/04 03:27:13;;;;;;;7.30;5.70;;;12.40;99.90;;;;;;5039357;28;20198;-89
2022/05/04 03:29:38;;;;;;;8.07;5.67;;;12.50;99.90;;;;;;5037660;28;20420;-89
2022/05/04 03:32:05;;;;;;;7.60;5.93;;;12.50;99.90;;;;;;5053526;28;20453;-89
2022/05/04 03:34:31;;;;;;;11.95;7.43;;;12.50;99.90;;;;;;5053379;28;20270;-90
2022/05/04 03:36:58;;;;;;;6.32;5.00;;;12.50;99.90;;;;;;5037437;28;20365;-96
2022/05/04 03:39:26;;;;;;;7.25;5.15;;;12.60;99.90;;;;;;5055778;28;20257;-96
2022/05/04 03:41:51;;;;;;;7.15;5.10;;;12.50;99.90;;;;;;5037218;28;20206;-90
2022/05/04 03:44:17;;;;;;;7.53;5.70;;;12.50;99.90;;;;;;5038898;28;20265;-89
2022/05/04 03:46:45;;;;;;;7.83;5.93;;;12.50;99.90;;;;;;5037455;28;20197;-96
2022/05/04 03:49:11;;;;;;;8.48;6.07;;;12.60;99.90;;;;;;5037376;28;20197;-90
2022/05/04 03:51:38;;;;;;;6.53;5.40;;;12.60;99.90;;;;;;5057396;28;20174;-96
2022/05/04 03:54:04;;;;;;;8.65;6.53;;;12.60;99.90;;;;;;5038730;28;20174;-90
2022/05/04 03:56:30;;;;;;;6.60;5.85;;;12.60;99.90;;;;;;5038956;28;20573;-90
2022/05/04 03:58:56;;;;;;;9.20;6.90;;;12.60;99.90;;;;;;5040620;28;20209;-89
2022/05/04 04:01:22;;;;;;;9.10;7.20;;;12.50;99.90;;;;;;5042128;28;20250;-96
2022/05/04 04:03:48;;;;;;;18.77;10.63;;;12.50;99.90;;;;;;5053919;28;20419;-94
2022/05/04 04:06:15;;;;;;;15.30;8.50;;;12.50;99.90;;;;;;5049754;28;20217;-90
2022/05/04 04:08:41;;;;;;;13.73;9.07;;;12.50;99.90;;;;;;5041639;28;21463;-96
2022/05/04 04:11:07;;;;;;;15.75;8.13;;;12.50;99.90;;;;;;5029685;28;20230;-89
2022/05/04 04:13:33;;;;;;;12.07;7.10;;;12.60;99.90;;;;;;5109232;28;20205;-89
2022/05/04 04:15:59;;;;;;;16.30;8.17;;;12.60;99.90;;;;;;5033815;28;20968;-88
2022/05/04 04:18:26;;;;;;;18.27;8.43;;;12.60;99.90;;;;;;5101558;28;20205;-96
2022/05/04 04:23:37;;;;;;;15.82;9.75;;;12.70;99.90;;;;;;5014623;28;20210;-89
2022/05/04 04:26:05;;;;;;;16.80;9.45;;;12.80;99.90;;;;;;5021193;28;20194;-88
2022/05/04 04:28:32;;;;;;;15.07;8.98;;;12.80;99.90;;;;;;5093199;28;20299;-89
2022/05/04 04:30:57;;;;;;;14.35;9.88;;;12.80;99.90;;;;;;5082386;28;20183;-88
2022/05/04 04:33:26;;;;;;;14.20;8.40;;;12.90;99.90;;;;;;5082848;28;20660;-88
2022/05/04 04:35:55;;;;;;;16.10;9.30;;;12.90;99.90;;;;;;5014642;28;20251;-96
2022/05/04 04:38:21;;;;;;;16.02;8.93;;;13.00;99.90;;;;;;5014319;28;20441;-96
2022/05/04 04:40:47;;;;;;;18.02;9.18;;;13.00;99.90;;;;;;5089900;28;20187;-89
2022/05/04 04:43:14;;;;;;;17.13;9.93;;;13.10;99.90;;;;;;5027718;28;20190;-90
2022/05/04 04:45:40;;;;;;;15.20;8.70;;;13.10;99.90;;;;;;5081162;28;20229;-88
2022/05/04 04:48:06;;;;;;;19.57;10.20;;;13.20;99.90;;;;;;5079857;28;20878;-88
2022/05/04 04:50:32;;;;;;;12.80;8.93;;;13.30;99.90;;;;;;5079901;28;20460;-96
2022/05/04 04:52:58;;;;;;;14.00;8.63;;;13.30;99.90;;;;;;5081199;28;20432;-96
2022/05/04 04:55:23;;;;;;;16.57;9.70;;;13.40;99.90;;;;;;5009485;28;20487;-89
2022/05/04 04:57:49;;;;;;;13.73;10.03;;;13.50;99.90;;;;;;5076950;28;20237;-96
2022/05/04 05:00:16;;;;;;;11.80;8.17;;;13.50;99.90;;;;;;5008196;28;20187;-96
2022/05/04 05:02:42;;;;;;;13.13;8.20;;;13.50;99.90;;;;;;5087828;28;20452;-96
2022/05/04 05:05:08;;;;;;;12.90;8.00;;;13.60;99.90;;;;;;5006361;28;20413;-88
2022/05/04 05:07:34;;;;;;;12.93;10.37;;;13.60;99.90;;;;;;5077435;28;20428;-88
2022/05/04 05:09:59;;;;;;;10.87;8.30;;;13.60;99.90;;;;;;5091067;28;20550;-88
2022/05/04 05:12:25;;;;;;;11.70;8.40;;;13.60;99.90;;;;;;5100994;28;20300;-96
2022/05/04 05:17:36;;;;;;;11.33;7.97;;;13.70;99.90;;;;;;5119699;28;20268;-89
2022/05/04 05:20:03;;;;;;;11.03;6.63;;;13.80;99.90;;;;;;5120035;28;20396;-88
2022/05/04 05:22:29;;;;;;;13.97;8.10;;;13.90;99.90;;;;;;5102267;28;20517;-96
2022/05/04 05:24:55;;;;;;;10.40;7.67;;;14.00;99.90;;;;;;5120980;28;20778;-89
2022/05/04 05:27:22;;;;;;;12.90;8.70;;;14.00;99.90;;;;;;5118955;28;20454;-94
2022/05/04 05:29:49;;;;;;;8.37;6.60;;;14.10;99.90;;;;;;5105448;28;20170;-96
2022/05/04 05:32:14;;;;;;;12.73;7.60;;;14.20;99.90;;;;;;5119916;28;20460;-90
2022/05/04 05:34:40;;;;;;;10.10;7.83;;;14.20;99.90;;;;;;5120237;28;20415;-95
2022/05/04 05:37:06;;;;;;;9.50;7.67;;;14.20;99.90;;;;;;5101860;28;20230;-96
2022/05/04 05:39:33;;;;;;;8.77;7.80;;;14.20;99.90;;;;;;5100834;28;20459;-93
2022/05/04 05:41:59;;;;;;;11.30;8.10;;;14.30;99.90;;;;;;5123894;28;20206;-96
2022/05/04 05:44:25;;;;;;;11.87;7.53;;;14.40;99.90;;;;;;5116043;28;20404;-89
2022/05/04 05:46:51;;;;;;;9.73;7.60;;;14.40;99.90;;;;;;5098932;28;20978;-96
2022/05/04 05:49:16;;;;;;;12.60;8.73;;;14.50;99.90;;;;;;5099955;28;20183;-89
2022/05/04 05:51:42;;;;;;;12.20;8.07;;;14.60;99.90;;;;;;5097106;28;20204;-89
2022/05/04 05:54:08;;;;;;;11.63;7.90;;;14.70;99.90;;;;;;5115190;28;20481;-89
2022/05/04 05:56:34;;;;;;;10.10;7.67;;;14.70;99.90;;;;;;5099074;28;20223;-90
2022/05/04 05:58:59;;;;;;;10.93;8.40;;;14.80;99.90;;;;;;5095546;28;20183;-89
2022/05/04 06:01:25;;;;;;;9.80;7.67;;;14.90;99.90;;;;;;5105672;28;20179;-96
2022/05/04 06:03:52;;;;;;;11.27;7.23;;;15.00;99.90;;;;;;5100253;28;20176;-90
2022/05/04 06:06:19;;;;;;;8.07;6.90;;;15.10;99.90;;;;;;5107063;28;20173;-90
2022/05/04 06:08:44;;;;;;;9.73;7.70;;;15.20;99.90;;;;;;5113241;28;20462;-88
2022/05/04 06:11:10;;;;;;;11.13;7.50;;;15.30;99.90;;;;;;5124539;27;20476;-89
2022/05/04 06:13:36;;;;;;;9.13;7.87;;;15.40;99.90;;;;;;5101679;27;20194;-88
2022/05/04 06:16:01;;;;;;;10.53;7.50;;;15.40;99.90;;;;;;5117544;27;20226;-96
2022/05/04 06:18:27;;;;;;;11.63;7.83;;;15.50;99.90;;;;;;5112816;27;20212;-90
2022/05/04 06:20:53;;;;;;;8.93;7.67;;;15.60;99.90;;;;;;5108492;27;20304;-89
2022/05/04 06:23:19;;;;;;;7.30;6.57;;;15.60;99.90;;;;;;5103459;27;20195;-89
2022/05/04 06:25:45;;;;;;;9.20;7.40;;;15.70;99.90;;;;;;5100883;27;20191;-88
2022/05/04 06:28:13;;;;;;;9.30;7.10;;;15.80;99.90;;;;;;5120007;27;20458;-88
2022/05/04 06:36:08;;;;;;;6.73;6.03;;;16.10;99.90;;;;;;5128122;27;20482;-96
2022/05/04 06:38:33;;;;;;;11.90;7.43;;;16.30;99.90;;;;;;5103799;27;20459;-96
2022/05/04 06:41:00;;;;;;;9.23;6.70;;;16.30;99.90;;;;;;5099151;28;20707;-96
2022/05/04 06:43:26;;;;;;;12.57;6.90;;;16.40;99.90;;;;;;5096960;28;20188;-96
2022/05/04 06:45:52;;;;;;;10.40;8.20;;;16.50;99.90;;;;;;5113834;27;20920;-88
2022/05/04 06:48:17;;;;;;;9.80;8.27;;;16.60;99.90;;;;;;5113912;27;20196;-88
2022/05/04 06:50:43;;;;;;;8.83;7.90;;;16.70;99.90;;;;;;5096651;28;20439;-96
2022/05/04 06:53:09;;;;;;;9.20;7.37;;;16.80;99.90;;;;;;5093189;28;20202;-95
2022/05/04 06:55:35;;;;;;;10.03;7.60;;;16.90;99.90;;;;;;5102915;28;20468;-96
2022/05/04 06:58:01;;;;;;;7.53;6.80;;;17.00;99.90;;;;;;5101639;28;20436;-94
2022/05/04 07:00:26;;;;;;;9.60;7.67;;;17.10;99.90;;;;;;5096251;28;20252;-88
2022/05/04 07:02:52;;;;;;;8.60;7.20;;;17.20;99.90;;;;;;5097040;27;20294;-88
2022/05/04 07:05:18;;;;;;;7.20;6.50;;;17.30;99.90;;;;;;5100565;28;20235;-96
2022/05/04 07:07:44;;;;;;;9.07;7.03;;;17.40;99.90;;;;;;5099990;28;20192;-96
2022/05/04 07:10:10;;;;;;;7.33;6.20;;;17.50;99.90;;;;;;5093616;28;20960;-88
2022/05/04 07:12:36;;;;;;;9.00;6.50;;;17.60;99.90;;;;;;5096254;28;20225;-88
2022/05/04 07:15:03;;;;;;;7.73;6.93;;;17.70;99.90;;;;;;5111435;28;20424;-88
2022/05/04 07:17:29;;;;;;;8.93;6.60;;;17.80;99.90;;;;;;5100275;28;20703;-89
2022/05/04 07:19:55;;;;;;;9.60;6.67;;;17.90;99.90;;;;;;5092509;28;20432;-88
2022/05/04 07:22:22;;;;;;;9.43;7.30;;;18.00;99.90;;;;;;5094448;28;20460;-87
2022/05/04 07:24:47;;;;;;;7.93;6.40;;;18.10;99.90;;;;;;5096284;28;20184;-96
2022/05/04 07:27:13;;;;;;;10.40;7.33;;;18.20;99.90;;;;;;5110697;28;20543;-96
2022/05/04 07:29:39;;;;;;;8.50;7.43;;;18.30;99.90;;;;;;5109435;28;20271;-88
2022/05/04 07:32:05;;;;;;;9.53;7.73;;;18.30;99.90;;;;;;5111497;28;20698;-87
2022/05/04 07:34:30;;;;;;;9.10;7.30;;;18.50;99.90;;;;;;5093396;28;20634;-89
2022/05/04 07:36:57;;;;;;;8.00;7.00;;;18.60;99.90;;;;;;5091531;28;20475;-96
2022/05/04 07:42:26;;;;;;;10.60;7.97;;;18.70;99.90;;;;;;5104680;28;20494;-96
2022/05/04 07:45:07;;;;;;;11.20;7.20;;;18.80;99.90;;;;;;5096032;28;20437;-88
2022/05/04 07:47:35;;;;;;;8.83;7.00;;;18.90;99.90;;;;;;5090655;28;20518;-96
2022/05/04 07:50:03;;;;;;;9.00;7.33;;;19.00;99.90;;;;;;5095552;28;20433;-95
2022/05/04 07:52:29;;;;;;;8.57;6.90;;;19.10;99.90;;;;;;5084494;28;20867;-88
2022/05/04 07:54:55;;;;;;;8.80;6.80;;;19.10;99.90;;;;;;5090168;28;20436;-96
2022/05/04 07:57:21;;;;;;;8.87;7.30;;;19.30;99.90;;;;;;5097014;28;20489;-88
2022/05/04 08:04:16;;;;;;;8.53;6.77;;;19.40;99.90;;;;;;5113480;28;20217;-96
2022/05/04 08:05:20;;;;;;;8.17;6.70;;;19.60;99.90;;;;;;5114199;28;20405;-96
2022/05/04 08:07:46;;;;;;;7.27;5.67;;;19.70;99.90;;;;;;5099244;28;20411;-96
2022/05/04 08:10:12;;;;;;;6.47;5.60;;;19.80;99.90;;;;;;5094715;27;20212;-96
2022/05/04 08:12:37;;;;;;;9.10;6.77;;;19.90;99.90;;;;;;5103599;28;20438;-88
2022/05/04 08:15:04;;;;;;;7.40;5.80;;;20.00;99.90;;;;;;5102380;28;20554;-96
2022/05/04 08:17:30;;;;;;;7.40;5.87;;;20.10;99.90;;;;;;5102199;27;20210;-88
2022/05/04 08:19:55;;;;;;;8.60;6.23;;;20.30;99.90;;;;;;5119857;27;20414;-95
2022/05/04 08:22:21;;;;;;;7.30;6.60;;;20.30;99.90;;;;;;5098274;27;20213;-96
2022/05/04 08:24:47;;;;;;;8.07;5.97;;;20.40;99.90;;;;;;5105239;28;20205;-88
2022/05/04 08:27:12;;;;;;;8.50;5.60;;;20.50;99.90;;;;;;5097138;28;20617;-88
2022/05/04 08:29:39;;;;;;;7.00;5.83;;;20.60;99.90;;;;;;5102313;28;20747;-94
2022/05/04 08:32:05;;;;;;;5.67;5.10;;;20.70;99.90;;;;;;5102300;28;20643;-96
2022/05/04 08:34:34;;;;;;;7.30;5.53;;;20.80;99.90;;;;;;5112173;27;20431;-95
2022/05/04 08:37:03;;;;;;;5.50;5.00;;;20.90;99.90;;;;;;5122026;27;20489;-96
2022/05/04 08:39:28;;;;;;;7.30;4.93;;;21.00;99.90;;;;;;5113648;27;20437;-96
2022/05/04 08:41:54;;;;;;;9.13;5.23;;;21.00;99.90;;;;;;5102511;28;20449;-96
2022/05/04 08:44:20;;;;;;;5.67;4.97;;;21.10;99.90;;;;;;5115453;27;20183;-88
2022/05/04 08:46:46;;;;;;;7.47;5.17;;;21.20;99.90;;;;;;5088063;27;20298;-88
2022/05/04 08:49:12;;;;;;;6.07;5.17;;;21.30;99.90;;;;;;5097688;28;20203;-88
2022/05/04 08:51:40;;;;;;;5.27;4.07;;;21.40;99.90;;;;;;5089350;28;20439;-96
2022/05/04 08:54:07;;;;;;;7.50;5.40;;;21.50;99.90;;;;;;5095524;28;20568;-88
2022/05/04 08:56:34;;;;;;;8.63;6.00;;;21.60;99.90;;;;;;5097526;28;20991;-88
2022/05/04 08:59:07;;;;;;;5.93;5.03;;;21.60;99.90;;;;;;5119713;28;20424;-96
2022/05/04 09:01:37;;;;;;;6.80;5.47;;;21.70;99.90;;;;;;5091670;28;20493;-96
2022/05/04 09:04:05;;;;;;;5.87;5.33;;;21.80;99.90;;;;;;5107976;28;20428;-88
2022/05/04 09:06:52;;;;;;;7.47;5.20;;;21.90;99.90;;;;;;5083638;28;20444;-88
2022/05/04 09:09:21;;;;;;;6.63;5.90;;;22.00;99.90;;;;;;5092001;28;20557;-88
2022/05/04 09:11:47;;;;;;;6.37;5.67;;;22.00;99.90;;;;;;5096426;28;20476;-88
2022/05/04 09:14:17;;;;;;;5.47;4.40;;;22.20;99.90;;;;;;5117516;28;20515;-88
2022/05/04 09:16:55;;;;;;;6.10;4.67;;;22.20;99.90;;;;;;5089760;28;21014;-89
2022/05/04 09:19:22;;;;;;;5.33;4.83;;;22.30;99.90;;;;;;5104158;28;20424;-96
2022/05/04 09:21:48;;;;;;;4.30;3.90;;;22.40;99.90;;;;;;5090348;28;20451;-96
2022/05/04 09:24:27;;;;;;;5.30;4.80;;;22.50;99.90;;;;;;5110541;28;20431;-96
2022/05/04 09:26:56;;;;;;;8.27;3.90;;;22.60;99.90;;;;;;5088245;28;20724;-96
2022/05/04 09:29:33;;;;;;;5.20;4.17;;;22.60;99.90;;;;;;5085987;28;20446;-87
2022/05/04 09:32:00;;;;;;;4.90;4.40;;;22.60;99.90;;;;;;5083644;28;20452;-87
2022/05/04 09:34:35;;;;;;;4.87;4.40;;;22.60;99.90;;;;;;5100138;28;20428;-96
2022/05/04 09:45:36;;;;;;;7.47;4.17;;;22.50;99.90;;;;;;5097537;28;20443;-87
2022/05/04 09:48:03;;;;;;;3.63;3.33;;;22.50;99.90;;;;;;5099148;28;20999;-88
2022/05/04 09:50:29;;;;;;;7.37;3.83;;;22.50;99.90;;;;;;5093926;28;20442;-87
2022/05/04 09:52:59;;;;;;;4.73;3.63;;;22.50;99.90;;;;;;5110982;28;20908;-87
2022/05/04 09:55:25;;;;;;;4.17;3.77;;;22.50;99.90;;;;;;5090662;28;20215;-87
2022/05/04 09:57:53;;;;;;;4.20;3.03;;;22.60;99.90;;;;;;5095330;28;20965;-96
2022/05/04 10:00:22;;;;;;;4.10;3.60;;;22.60;99.90;;;;;;5115374;27;20440;-96
2022/05/04 10:02:52;;;;;;;3.87;3.57;;;22.60;99.90;;;;;;5093246;28;20502;-88
2022/05/04 10:05:19;;;;;;;3.87;3.47;;;22.70;99.90;;;;;;5116871;28;20469;-88
2022/05/04 10:07:50;;;;;;;5.03;3.73;;;22.70;99.90;;;;;;5105282;28;20491;-88
2022/05/04 10:10:19;;;;;;;4.13;3.73;;;22.70;99.90;;;;;;5097674;27;20613;-88
2022/05/04 10:12:51;;;;;;;4.90;3.90;;;22.60;99.90;;;;;;5022722;28;21090;-88
2022/05/04 10:15:19;;;;;;;4.50;3.57;;;22.60;99.90;;;;;;5030480;28;20440;-96
2022/05/04 10:18:10;;;;;;;4.10;3.10;;;22.60;99.90;;;;;;5011710;28;20461;-96
2022/05/04 10:20:40;;;;;;;3.30;3.00;;;22.50;99.90;;;;;;5020182;28;20432;-88
2022/05/04 10:23:24;;;;;;;3.03;2.80;;;22.60;99.80;;;;;;5103064;27;20466;-88
2022/05/04 10:25:57;;;;;;;4.83;3.43;;;22.60;99.90;;;;;;5014808;28;20436;-96
2022/05/04 10:28:26;;;;;;;2.77;2.57;;;22.70;99.90;;;;;;5010018;28;20469;-96
2022/05/04 10:30:56;;;;;;;4.70;3.07;;;22.80;99.10;;;;;;5016568;28;20448;-88
2022/05/04 10:33:32;;;;;;;3.17;2.87;;;22.80;99.90;;;;;;5009390;28;20479;-88
2022/05/04 10:36:26;;;;;;;6.27;2.97;;;22.90;99.90;;;;;;5050918;27;20482;-88
2022/05/04 10:38:56;;;;;;;3.00;2.80;;;23.00;98.80;;;;;;5025581;28;20409;-88
2022/05/04 10:41:35;;;;;;;3.03;2.73;;;23.10;99.20;;;;;;5008195;28;20436;-88
2022/05/04 10:44:02;;;;;;;3.97;2.77;;;23.10;99.40;;;;;;5011543;28;20436;-96
2022/05/04 10:46:30;;;;;;;3.33;3.03;;;23.20;99.10;;;;;;5012823;28;20436;-88
2022/05/04 10:48:58;;;;;;;2.43;2.03;;;23.30;97.90;;;;;;5036274;27;20488;-89
2022/05/04 10:51:27;;;;;;;3.20;2.90;;;23.30;97.80;;;;;;5114596;27;20424;-88
2022/05/04 10:53:59;;;;;;;3.13;2.83;;;23.40;97.70;;;;;;5071087;28;20431;-88
2022/05/04 10:56:27;;;;;;;3.43;3.13;;;23.40;97.30;;;;;;5007666;28;20476;-96
2022/05/04 10:58:56;;;;;;;2.83;2.60;;;23.50;97.30;;;;;;5013555;28;20422;-96
2022/05/04 11:01:31;;;;;;;3.10;2.80;;;23.50;97.00;;;;;;5050335;28;20984;-96
2022/05/04 11:04:13;;;;;;;3.30;3.00;;;23.60;97.20;;;;;;5006155;28;20808;-88
2022/05/04 11:06:56;;;;;;;3.00;2.70;;;23.70;97.50;;;;;;5036687;28;20471;-88
2022/05/04 11:09:31;;;;;;;3.20;2.90;;;23.70;97.10;;;;;;5030463;28;20589;-88
2022/05/04 11:12:00;;;;;;;3.07;2.60;;;23.80;96.10;;;;;;5086655;28;20514;-96
2022/05/04 11:14:26;;;;;;;3.33;3.03;;;23.80;95.70;;;;;;5099104;28;20927;-96
2022/05/04 11:16:55;;;;;;;3.40;3.10;;;23.90;94.70;;;;;;5097833;28;21092;-96
2022/05/04 11:19:27;;;;;;;3.27;2.97;;;23.90;93.90;;;;;;5097080;28;20430;-96
2022/05/04 11:21:54;;;;;;;3.87;3.03;;;23.90;94.60;;;;;;5098372;28;20465;-96
2022/05/04 11:24:20;;;;;;;3.33;2.90;;;24.00;93.70;;;;;;5098049;28;20935;-96
2022/05/04 11:26:49;;;;;;;4.67;3.40;;;24.00;93.20;;;;;;5110609;28;20431;-96
2022/05/04 11:29:19;;;;;;;4.03;3.20;;;24.00;93.30;;;;;;5096567;28;20183;-96
2022/05/04 11:31:48;;;;;;;3.60;3.30;;;24.00;93.40;;;;;;5113527;28;20461;-96
2022/05/04 11:34:17;;;;;;;3.00;2.80;;;24.00;93.10;;;;;;5086005;27;20427;-88
2022/05/04 11:36:45;;;;;;;3.20;2.90;;;24.00;92.70;;;;;;5111959;28;20774;-89
2022/05/04 11:39:15;;;;;;;2.90;2.70;;;24.00;92.40;;;;;;5112866;28;20486;-88
2022/05/04 11:41:46;;;;;;;3.63;2.77;;;24.00;93.70;;;;;;5091324;28;20459;-95
2022/05/04 11:44:13;;;;;;;3.47;3.17;;;24.00;92.80;;;;;;5099624;28;20827;-96
2022/05/04 11:46:41;;;;;;;3.60;3.00;;;24.00;93.00;;;;;;5098168;28;20483;-96
2022/05/04 11:49:09;;;;;;;3.57;3.23;;;24.00;92.80;;;;;;5101122;28;20434;-96
2022/05/04 11:51:35;;;;;;;2.40;2.30;;;24.00;93.20;;;;;;5118658;28;20424;-88
2022/05/04 11:54:02;;;;;;;3.00;2.80;;;23.80;92.40;;;;;;5104908;28;20556;-96
2022/05/04 11:56:31;;;;;;;3.13;2.63;;;23.70;92.00;;;;;;5109878;27;20478;-88
2022/05/04 11:58:57;;;;;;;2.87;2.57;;;23.50;91.80;;;;;;5080008;28;20427;-89
2022/05/04 12:01:23;;;;;;;3.40;2.80;;;23.30;92.00;;;;;;5087451;28;20437;-89
2022/05/04 12:03:53;;;;;;;3.00;2.70;;;23.00;92.70;;;;;;5090287;27;20930;-88
2022/05/04 12:06:20;;;;;;;4.00;3.30;;;22.90;93.60;;;;;;5086713;28;20841;-96
2022/05/04 12:08:46;;;;;;;3.57;3.27;;;22.70;94.00;;;;;;5096271;27;20806;-89
2022/05/04 12:11:37;;;;;;;3.60;3.30;;;22.60;94.90;;;;;;5033362;27;20520;-88
2022/05/04 12:14:03;;;;;;;3.57;3.20;;;22.40;94.40;;;;;;4998338;28;20545;-88
2022/05/04 12:16:29;;;;;;;3.20;2.90;;;22.30;94.80;;;;;;5016431;28;20479;-96
2022/05/04 12:18:58;;;;;;;3.87;3.37;;;22.20;94.60;;;;;;5037660;28;21004;-95
2022/05/04 12:21:24;;;;;;;3.00;2.80;;;22.10;94.50;;;;;;5063397;28;20436;-88
2022/05/04 12:24:13;;;;;;;5.70;2.93;;;22.00;95.40;;;;;;5016515;28;20519;-95
2022/05/04 12:26:40;;;;;;;3.40;3.10;;;22.00;95.10;;;;;;5029365;27;20450;-88
2022/05/04 12:34:42;;;;;;;3.40;3.10;;;21.90;95.40;;;;;;5017298;28;20811;-88
2022/05/04 12:37:08;;;;;;;3.90;3.00;;;21.80;95.50;;;;;;5010175;28;20553;-88
2022/05/04 12:39:34;;;;;;;3.70;3.40;;;21.80;96.40;;;;;;5033184;28;20431;-96
2022/05/04 12:42:03;;;;;;;2.93;2.60;;;21.80;97.00;;;;;;5012329;28;20990;-96
2022/05/04 12:44:32;;;;;;;2.90;2.37;;;21.80;97.30;;;;;;5046907;28;20265;-96
2022/05/04 12:47:00;;;;;;;4.40;3.27;;;21.80;97.80;;;;;;5047504;27;20538;-88
2022/05/04 12:49:26;;;;;;;4.23;3.00;;;21.80;97.20;;;;;;5032250;28;20419;-96
2022/05/04 12:51:55;;;;;;;3.23;2.93;;;21.80;97.20;;;;;;5014699;28;20498;-96
2022/05/04 12:54:20;;;;;;;2.90;2.70;;;21.80;97.70;;;;;;5028537;28;20785;-88
2022/05/04 12:56:50;;;;;;;4.30;3.97;;;21.80;98.00;;;;;;5008971;28;20475;-89
2022/05/04 12:59:17;;;;;;;4.27;3.47;;;21.80;99.40;;;;;;5025177;28;20188;-88
2022/05/04 13:01:44;;;;;;;3.33;3.03;;;21.80;99.90;;;;;;5030816;28;20451;-88
2022/05/04 13:04:10;;;;;;;3.37;3.07;;;21.80;99.30;;;;;;5033846;28;20440;-88
2022/05/04 13:06:36;;;;;;;4.03;3.73;;;21.70;98.70;;;;;;5030254;28;20447;-88
2022/05/04 13:09:02;;;;;;;4.20;2.90;;;21.70;98.00;;;;;;5024541;28;20441;-88
2022/05/04 13:11:30;;;;;;;3.60;3.00;;;21.60;97.60;;;;;;5013870;28;20238;-88
2022/05/04 13:13:56;;;;;;;4.20;2.87;;;21.60;97.10;;;;;;5076068;28;20423;-96
2022/05/04 13:16:21;;;;;;;4.03;3.60;;;21.60;97.60;;;;;;5079040;28;20490;-89
2022/05/04 13:18:47;;;;;;;3.60;3.30;;;21.60;98.40;;;;;;5056547;27;20664;-88
2022/05/04 13:21:13;;;;;;;3.57;3.27;;;21.50;99.20;;;;;;5056296;28;20187;-88
2022/05/04 13:23:40;;;;;;;3.83;3.43;;;21.50;99.40;;;;;;5040304;28;20197;-88